sensor_id;sensor_type;location;lat;lon;timestamp;pressure;altitude;pressure_sealevel;temperature;humidity
69624;BME280;56843;52.020;5.670;2023-02-12T00:00:42;103637.22;;;9.91;66.81
69624;BME280;56843;52.020;5.670;2023-02-12T00:02:12;103640.13;;;9.89;67.03
69624;BME280;56843;52.020;5.670;2023-02-12T00:03:43;103639.06;;;9.90;66.82
69624;BME280;56843;52.020;5.670;2023-02-12T00:05:14;103638.25;;;9.90;66.92
69624;BME280;56843;52.020;5.670;2023-02-12T00:06:45;103632.13;;;9.89;66.84
69624;BME280;56843;52.020;5.670;2023-02-12T00:08:16;103644.41;;;9.90;67.01
69624;BME280;56843;52.020;5.670;2023-02-12T00:09:46;103634.81;;;9.89;66.93
69624;BME280;56843;52.020;5.670;2023-02-12T00:11:19;103630.75;;;9.87;66.96
69624;BME280;56843;52.020;5.670;2023-02-12T00:12:53;103635.03;;;9.88;67.24
69624;BME280;56843;52.020;5.670;2023-02-12T00:14:23;103633.44;;;9.87;67.15
69624;BME280;56843;52.020;5.670;2023-02-12T00:15:54;103639.31;;;9.89;67.12
69624;BME280;56843;52.020;5.670;2023-02-12T00:17:24;103644.41;;;9.90;67.19
69624;BME280;56843;52.020;5.670;2023-02-12T00:18:56;103637.22;;;9.91;67.03
69624;BME280;56843;52.020;5.670;2023-02-12T00:20:27;103635.34;;;9.91;67.23
69624;BME280;56843;52.020;5.670;2023-02-12T00:21:57;103634.28;;;9.92;67.21
69624;BME280;56843;52.020;5.670;2023-02-12T00:23:28;103638.03;;;9.91;67.24
69624;BME280;56843;52.020;5.670;2023-02-12T00:24:59;103635.91;;;9.93;67.21
69624;BME280;56843;52.020;5.670;2023-02-12T00:26:29;103643.09;;;9.93;67.16
69624;BME280;56843;52.020;5.670;2023-02-12T00:28:00;103635.91;;;9.93;66.93
69624;BME280;56843;52.020;5.670;2023-02-12T00:29:30;103635.91;;;9.93;67.01
69624;BME280;56843;52.020;5.670;2023-02-12T00:31:06;103632.44;;;9.93;66.98
69624;BME280;56843;52.020;5.670;2023-02-12T00:32:37;103641.47;;;9.92;66.90
69624;BME280;56843;52.020;5.670;2023-02-12T00:34:09;103635.91;;;9.93;66.98
69624;BME280;56843;52.020;5.670;2023-02-12T00:35:40;103626.28;;;9.92;67.13
69624;BME280;56843;52.020;5.670;2023-02-12T00:37:11;103629.75;;;9.93;67.15
69624;BME280;56843;52.020;5.670;2023-02-12T00:38:42;103631.59;;;9.92;67.20
69624;BME280;56843;52.020;5.670;2023-02-12T00:40:13;103628.13;;;9.92;67.07
69624;BME280;56843;52.020;5.670;2023-02-12T00:41:44;103630.78;;;9.92;67.02
69624;BME280;56843;52.020;5.670;2023-02-12T00:43:14;103634.53;;;9.91;67.10
69624;BME280;56843;52.020;5.670;2023-02-12T00:44:45;103640.91;;;9.90;67.17
69624;BME280;56843;52.020;5.670;2023-02-12T00:46:15;103631.88;;;9.91;67.14
69624;BME280;56843;52.020;5.670;2023-02-12T00:47:47;103634.81;;;9.89;67.02
69624;BME280;56843;52.020;5.670;2023-02-12T00:49:19;103634.81;;;9.89;67.26
69624;BME280;56843;52.020;5.670;2023-02-12T00:50:49;103641.19;;;9.88;67.23
69624;BME280;56843;52.020;5.670;2023-02-12T00:52:20;103645.47;;;9.89;67.22
69624;BME280;56843;52.020;5.670;2023-02-12T00:53:51;103639.31;;;9.89;67.16
69624;BME280;56843;52.020;5.670;2023-02-12T00:55:21;103639.06;;;9.90;67.25
69624;BME280;56843;52.020;5.670;2023-02-12T00:56:52;103631.31;;;9.89;67.23
69624;BME280;56843;52.020;5.670;2023-02-12T00:58:23;103642.81;;;9.89;67.08
69624;BME280;56843;52.020;5.670;2023-02-12T00:59:54;103642.81;;;9.89;67.03
69624;BME280;56843;52.020;5.670;2023-02-12T01:01:24;103632.91;;;9.90;67.19
69624;BME280;56843;52.020;5.670;2023-02-12T01:02:55;103638.25;;;9.90;67.17
69624;BME280;56843;52.020;5.670;2023-02-12T01:04:25;103635.34;;;9.91;67.05
69624;BME280;56843;52.020;5.670;2023-02-12T01:05:58;103633.72;;;9.90;67.07
69624;BME280;56843;52.020;5.670;2023-02-12T01:07:28;103637.22;;;9.91;67.13
69624;BME280;56843;52.020;5.670;2023-02-12T01:09:00;103639.88;;;9.91;67.00
69624;BME280;56843;52.020;5.670;2023-02-12T01:10:31;103631.06;;;9.90;67.00
69624;BME280;56843;52.020;5.670;2023-02-12T01:12:02;103638.25;;;9.90;67.07
69624;BME280;56843;52.020;5.670;2023-02-12T01:13:33;103632.13;;;9.89;66.95
69624;BME280;56843;52.020;5.670;2023-02-12T01:15:04;103639.31;;;9.89;66.76
69624;BME280;56843;52.020;5.670;2023-02-12T01:16:35;103644.88;;;9.87;67.19
69624;BME280;56843;52.020;5.670;2023-02-12T01:18:06;103647.56;;;9.87;66.96
69624;BME280;56843;52.020;5.670;2023-02-12T01:19:36;103636.88;;;9.87;66.97
69624;BME280;56843;52.020;5.670;2023-02-12T01:21:11;103634.47;;;9.86;67.00
69624;BME280;56843;52.020;5.670;2023-02-12T01:22:43;103637.41;;;9.84;66.99
69624;BME280;56843;52.020;5.670;2023-02-12T01:24:13;103634.47;;;9.86;67.03
69624;BME280;56843;52.020;5.670;2023-02-12T01:25:44;103632.06;;;9.84;67.10
69624;BME280;56843;52.020;5.670;2023-02-12T01:27:15;103636.59;;;9.84;67.11
69624;BME280;56843;52.020;5.670;2023-02-12T01:28:51;103631.50;;;9.82;67.10
69624;BME280;56843;52.020;5.670;2023-02-12T01:30:22;103629.06;;;9.81;67.26
69624;BME280;56843;52.020;5.670;2023-02-12T01:31:55;103631.19;;;9.79;67.13
69624;BME280;56843;52.020;5.670;2023-02-12T01:33:25;103622.38;;;9.78;67.01
69624;BME280;56843;52.020;5.670;2023-02-12T01:34:56;103626.91;;;9.78;67.50
69624;BME280;56843;52.020;5.670;2023-02-12T01:36:28;103621.00;;;9.76;67.15
69624;BME280;56843;52.020;5.670;2023-02-12T01:37:59;103622.06;;;9.75;67.01
69624;BME280;56843;52.020;5.670;2023-02-12T01:39:30;103628.47;;;9.74;67.11
69624;BME280;56843;52.020;5.670;2023-02-12T01:41:04;103624.16;;;9.73;66.80
69624;BME280;56843;52.020;5.670;2023-02-12T01:42:35;103626.28;;;9.71;67.00
69624;BME280;56843;52.020;5.670;2023-02-12T01:45:45;103622.50;;;9.67;66.70
69624;BME280;56843;52.020;5.670;2023-02-12T01:47:17;103626.47;;;9.64;67.04
69624;BME280;56843;52.020;5.670;2023-02-12T01:48:47;103628.56;;;9.62;66.86
69624;BME280;56843;52.020;5.670;2023-02-12T01:50:19;103629.63;;;9.61;67.05
69624;BME280;56843;52.020;5.670;2023-02-12T01:51:54;103630.69;;;9.60;66.86
69624;BME280;56843;52.020;5.670;2023-02-12T01:53:32;103631.97;;;9.57;66.94
69624;BME280;56843;52.020;5.670;2023-02-12T01:55:06;103629.78;;;9.54;66.94
69624;BME280;56843;52.020;5.670;2023-02-12T01:56:38;103634.56;;;9.52;66.95
69624;BME280;56843;52.020;5.670;2023-02-12T01:58:09;103631.34;;;9.50;66.98
69624;BME280;56843;52.020;5.670;2023-02-12T01:59:42;103639.59;;;9.49;66.82
69624;BME280;56843;52.020;5.670;2023-02-12T02:04:04;103631.88;;;9.31;67.06
69624;BME280;56843;52.020;5.670;2023-02-12T02:05:49;103644.72;;;9.34;67.00
69624;BME280;56843;52.020;5.670;2023-02-12T02:07:23;103630.03;;;9.31;67.10
69624;BME280;56843;52.020;5.670;2023-02-12T02:08:55;103635.34;;;9.31;67.14
69624;BME280;56843;52.020;5.670;2023-02-12T02:10:28;103631.06;;;9.30;67.04
69624;BME280;56843;52.020;5.670;2023-02-12T02:11:59;103634.78;;;9.29;66.94
69624;BME280;56843;52.020;5.670;2023-02-12T02:13:48;103636.31;;;9.25;67.02
69624;BME280;56843;52.020;5.670;2023-02-12T02:15:39;103626.72;;;9.24;67.03
69624;BME280;56843;52.020;5.670;2023-02-12T02:17:26;103636.56;;;9.24;66.96
69624;BME280;56843;52.020;5.670;2023-02-12T02:19:08;103630.91;;;9.20;67.28
69624;BME280;56843;52.020;5.670;2023-02-12T02:24:46;103627.44;;;9.20;67.02
69624;BME280;56843;52.020;5.670;2023-02-12T02:35:14;103627.31;;;9.10;67.24
69624;BME280;56843;52.020;5.670;2023-02-12T02:37:07;103623.56;;;9.11;67.46
69624;BME280;56843;52.020;5.670;2023-02-12T02:39:04;103613.16;;;9.09;67.22
69624;BME280;56843;52.020;5.670;2023-02-12T02:40:40;103609.13;;;9.07;67.40
69624;BME280;56843;52.020;5.670;2023-02-12T02:42:26;103603.78;;;9.07;67.21
69624;BME280;56843;52.020;5.670;2023-02-12T02:44:04;103612.59;;;9.07;67.48
69624;BME280;56843;52.020;5.670;2023-02-12T02:45:41;103615.25;;;9.07;67.35
69624;BME280;56843;52.020;5.670;2023-02-12T02:47:13;103616.88;;;9.08;67.32
69624;BME280;56843;52.020;5.670;2023-02-12T02:48:58;103611.53;;;9.08;67.40
69624;BME280;56843;52.020;5.670;2023-02-12T02:50:33;103609.94;;;9.07;67.46
69624;BME280;56843;52.020;5.670;2023-02-12T02:52:11;103617.69;;;9.09;67.60
69624;BME280;56843;52.020;5.670;2023-02-12T02:53:59;103613.16;;;9.09;67.61
69624;BME280;56843;52.020;5.670;2023-02-12T02:55:45;103616.63;;;9.10;67.50
69624;BME280;56843;52.020;5.670;2023-02-12T02:57:30;103606.19;;;9.08;67.41
69624;BME280;56843;52.020;5.670;2023-02-12T02:59:10;103611.53;;;9.08;67.63
69624;BME280;56843;52.020;5.670;2023-02-12T03:00:46;103604.34;;;9.09;67.64
69624;BME280;56843;52.020;5.670;2023-02-12T03:02:22;103608.88;;;9.08;67.59
69624;BME280;56843;52.020;5.670;2023-02-12T03:04:02;103614.75;;;9.10;67.57
69624;BME280;56843;52.020;5.670;2023-02-12T03:05:38;103608.06;;;9.08;67.63
69624;BME280;56843;52.020;5.670;2023-02-12T03:07:14;103599.28;;;9.07;67.45
69624;BME280;56843;52.020;5.670;2023-02-12T03:08:53;103606.75;;;9.10;67.57
69624;BME280;56843;52.020;5.670;2023-02-12T03:10:28;103601.44;;;9.10;67.73
69624;BME280;56843;52.020;5.670;2023-02-12T03:12:18;103601.44;;;9.10;67.64
69624;BME280;56843;52.020;5.670;2023-02-12T03:15:34;103608.66;;;9.10;67.77
69624;BME280;56843;52.020;5.670;2023-02-12T03:17:14;103596.09;;;9.10;67.72
69624;BME280;56843;52.020;5.670;2023-02-12T03:18:51;103600.38;;;9.11;67.67
69624;BME280;56843;52.020;5.670;2023-02-12T03:20:30;103598.53;;;9.12;67.53
69624;BME280;56843;52.020;5.670;2023-02-12T03:22:30;103599.56;;;9.11;67.73
69624;BME280;56843;52.020;5.670;2023-02-12T03:24:10;103594.50;;;9.09;67.68
69624;BME280;56843;52.020;5.670;2023-02-12T03:25:56;103597.97;;;9.10;67.71
69624;BME280;56843;52.020;5.670;2023-02-12T03:27:31;103596.34;;;9.09;67.75
69624;BME280;56843;52.020;5.670;2023-02-12T03:29:02;103597.16;;;9.09;67.71
69624;BME280;56843;52.020;5.670;2023-02-12T03:30:43;103598.03;;;9.15;67.65
69624;BME280;56843;52.020;5.670;2023-02-12T03:32:28;103598.59;;;9.17;68.15
69624;BME280;56843;52.020;5.670;2023-02-12T03:35:39;103601.53;;;9.37;68.48
69624;BME280;56843;52.020;5.670;2023-02-12T03:37:17;103600.88;;;9.46;68.29
69624;BME280;56843;52.020;5.670;2023-02-12T03:38:52;103593.00;;;9.56;68.28
69624;BME280;56843;52.020;5.670;2023-02-12T03:40:30;103593.41;;;9.65;68.57
69624;BME280;56843;52.020;5.670;2023-02-12T03:42:13;103600.22;;;9.78;68.48
69624;BME280;56843;52.020;5.670;2023-02-12T03:43:53;103602.44;;;9.86;68.35
69624;BME280;56843;52.020;5.670;2023-02-12T03:45:56;103605.25;;;9.96;68.33
69624;BME280;56843;52.020;5.670;2023-02-12T03:47:48;103600.75;;;10.01;68.23
69624;BME280;56843;52.020;5.670;2023-02-12T03:49:34;103610.19;;;10.09;68.44
69624;BME280;56843;52.020;5.670;2023-02-12T03:51:34;103611.41;;;10.18;68.45
69624;BME280;56843;52.020;5.670;2023-02-12T03:53:06;103610.06;;;10.20;68.24
69624;BME280;56843;52.020;5.670;2023-02-12T03:54:37;103609.88;;;10.27;68.16
69624;BME280;56843;52.020;5.670;2023-02-12T03:56:12;103612.09;;;10.35;68.38
69624;BME280;56843;52.020;5.670;2023-02-12T03:57:51;103611.34;;;10.40;68.21
69624;BME280;56843;52.020;5.670;2023-02-12T03:59:24;103611.41;;;10.45;68.42
69624;BME280;56843;52.020;5.670;2023-02-12T04:00:55;103612.50;;;10.49;68.18
69624;BME280;56843;52.020;5.670;2023-02-12T04:02:26;103612.53;;;10.54;68.12
69624;BME280;56843;52.020;5.670;2023-02-12T04:03:58;103614.44;;;10.58;68.13
69624;BME280;56843;52.020;5.670;2023-02-12T04:05:29;103626.25;;;10.62;68.32
69624;BME280;56843;52.020;5.670;2023-02-12T04:07:00;103616.88;;;10.65;68.33
69624;BME280;56843;52.020;5.670;2023-02-12T04:08:31;103618.81;;;10.69;68.21
69624;BME280;56843;52.020;5.670;2023-02-12T04:10:02;103627.13;;;10.73;68.28
69624;BME280;56843;52.020;5.670;2023-02-12T04:13:25;103621.56;;;10.79;68.48
69624;BME280;56843;52.020;5.670;2023-02-12T04:15:33;103623.72;;;10.82;68.08
69624;BME280;56843;52.020;5.670;2023-02-12T04:19:12;103621.63;;;10.84;68.18
69624;BME280;56843;52.020;5.670;2023-02-12T04:26:43;103627.03;;;10.94;67.95
69624;BME280;56843;52.020;5.670;2023-02-12T04:30:02;103635.91;;;11.00;67.76
69624;BME280;56843;52.020;5.670;2023-02-12T04:32:03;103642.09;;;11.05;67.80
69624;BME280;56843;52.020;5.670;2023-02-12T04:33:45;103640.75;;;11.03;67.98
69624;BME280;56843;52.020;5.670;2023-02-12T04:37:20;103646.41;;;11.12;67.81
69624;BME280;56843;52.020;5.670;2023-02-12T04:38:54;103646.94;;;11.08;67.91
69624;BME280;56843;52.020;5.670;2023-02-12T04:40:27;103641.06;;;11.12;68.03
69624;BME280;56843;52.020;5.670;2023-02-12T04:42:01;103645.91;;;11.15;68.00
69624;BME280;56843;52.020;5.670;2023-02-12T04:43:34;103644.59;;;11.17;68.04
69624;BME280;56843;52.020;5.670;2023-02-12T04:45:08;103648.63;;;11.20;67.76
69624;BME280;56843;52.020;5.670;2023-02-12T04:46:39;103650.78;;;11.23;67.61
69624;BME280;56843;52.020;5.670;2023-02-12T04:48:10;103645.72;;;11.26;67.65
69624;BME280;56843;52.020;5.670;2023-02-12T04:49:42;103656.16;;;11.28;67.82
69624;BME280;56843;52.020;5.670;2023-02-12T04:51:12;103652.97;;;11.31;68.04
69624;BME280;56843;52.020;5.670;2023-02-12T04:52:43;103658.06;;;11.32;67.93
69624;BME280;56843;52.020;5.670;2023-02-12T04:54:14;103652.44;;;11.34;67.70
69624;BME280;56843;52.020;5.670;2023-02-12T04:55:46;103657.56;;;11.35;67.68
69624;BME280;56843;52.020;5.670;2023-02-12T04:57:18;103656.47;;;11.36;67.66
69624;BME280;56843;52.020;5.670;2023-02-12T04:58:49;103658.66;;;11.39;67.52
69624;BME280;56843;52.020;5.670;2023-02-12T05:00:19;103647.94;;;11.39;67.62
69624;BME280;56843;52.020;5.670;2023-02-12T05:01:50;103656.53;;;11.41;67.70
69624;BME280;56843;52.020;5.670;2023-02-12T05:03:20;103661.59;;;11.43;67.32
69624;BME280;56843;52.020;5.670;2023-02-12T05:04:51;103658.94;;;11.43;67.62
69624;BME280;56843;52.020;5.670;2023-02-12T05:06:21;103657.06;;;11.43;67.39
69624;BME280;56843;52.020;5.670;2023-02-12T05:07:52;103658.66;;;11.44;67.54
69624;BME280;56843;52.020;5.670;2023-02-12T05:09:23;103655.75;;;11.46;67.49
69624;BME280;56843;52.020;5.670;2023-02-12T05:10:53;103660.03;;;11.47;67.51
69624;BME280;56843;52.020;5.670;2023-02-12T05:12:23;103661.91;;;11.46;67.22
69624;BME280;56843;52.020;5.670;2023-02-12T05:13:54;103667.00;;;11.48;66.92
69624;BME280;56843;52.020;5.670;2023-02-12T05:15:25;103663.25;;;11.49;67.03
69624;BME280;56843;52.020;5.670;2023-02-12T05:16:55;103667.53;;;11.50;67.22
69624;BME280;56843;52.020;5.670;2023-02-12T05:18:26;103669.41;;;11.49;67.00
69624;BME280;56843;52.020;5.670;2023-02-12T05:19:56;103670.22;;;11.50;67.12
69624;BME280;56843;52.020;5.670;2023-02-12T05:21:27;103677.97;;;11.51;66.98
69624;BME280;56843;52.020;5.670;2023-02-12T05:22:57;103669.16;;;11.51;67.02
69624;BME280;56843;52.020;5.670;2023-02-12T05:24:28;103679.88;;;11.51;67.14
69624;BME280;56843;52.020;5.670;2023-02-12T05:26:00;103669.16;;;11.51;66.95
69624;BME280;56843;52.020;5.670;2023-02-12T05:27:31;103664.88;;;11.50;66.73
69624;BME280;56843;52.020;5.670;2023-02-12T05:29:02;103661.13;;;11.51;66.87
69624;BME280;56843;52.020;5.670;2023-02-12T05:30:32;103661.13;;;11.51;66.86
69624;BME280;56843;52.020;5.670;2023-02-12T05:32:03;103663.81;;;11.51;66.94
69624;BME280;56843;52.020;5.670;2023-02-12T05:33:34;103661.13;;;11.51;66.64
69624;BME280;56843;52.020;5.670;2023-02-12T05:35:04;103665.69;;;11.50;66.47
69624;BME280;56843;52.020;5.670;2023-02-12T05:36:35;103667.28;;;11.51;66.60
69624;BME280;56843;52.020;5.670;2023-02-12T05:38:06;103669.16;;;11.51;66.88
69624;BME280;56843;52.020;5.670;2023-02-12T05:39:36;103663.81;;;11.51;66.70
69624;BME280;56843;52.020;5.670;2023-02-12T05:41:09;103668.34;;;11.50;66.67
69624;BME280;56843;52.020;5.670;2023-02-12T05:42:40;103669.41;;;11.49;66.68
69624;BME280;56843;52.020;5.670;2023-02-12T05:44:11;103674.25;;;11.52;66.65
69624;BME280;56843;52.020;5.670;2023-02-12T05:45:41;103672.63;;;11.51;66.69
69624;BME280;56843;52.020;5.670;2023-02-12T05:47:14;103665.41;;;11.52;66.45
69624;BME280;56843;52.020;5.670;2023-02-12T05:48:45;103664.59;;;11.51;66.45
69624;BME280;56843;52.020;5.670;2023-02-12T05:50:16;103670.75;;;11.52;66.46
69624;BME280;56843;52.020;5.670;2023-02-12T05:51:46;103669.16;;;11.51;66.55
69624;BME280;56843;52.020;5.670;2023-02-12T05:53:17;103674.53;;;11.51;66.40
69624;BME280;56843;52.020;5.670;2023-02-12T05:54:48;103669.94;;;11.51;66.15
69624;BME280;56843;52.020;5.670;2023-02-12T05:56:25;103665.41;;;11.52;66.15
69624;BME280;56843;52.020;5.670;2023-02-12T05:57:55;103666.50;;;11.51;66.29
69624;BME280;56843;52.020;5.670;2023-02-12T05:59:26;103669.72;;;11.53;66.40
69624;BME280;56843;52.020;5.670;2023-02-12T06:00:56;103671.56;;;11.52;66.44
69624;BME280;56843;52.020;5.670;2023-02-12T06:02:27;103667.03;;;11.53;66.39
69624;BME280;56843;52.020;5.670;2023-02-12T06:03:59;103667.81;;;11.53;66.43
69624;BME280;56843;52.020;5.670;2023-02-12T06:05:30;103669.72;;;11.53;66.05
69624;BME280;56843;52.020;5.670;2023-02-12T06:07:00;103666.22;;;11.52;65.90
69624;BME280;56843;52.020;5.670;2023-02-12T06:08:31;103671.56;;;11.52;65.95
69624;BME280;56843;52.020;5.670;2023-02-12T06:10:02;103664.34;;;11.53;66.00
69624;BME280;56843;52.020;5.670;2023-02-12T06:11:32;103671.56;;;11.52;66.15
69624;BME280;56843;52.020;5.670;2023-02-12T06:13:03;103675.84;;;11.53;66.21
69624;BME280;56843;52.020;5.670;2023-02-12T06:14:33;103679.34;;;11.54;66.20
69624;BME280;56843;52.020;5.670;2023-02-12T06:16:04;103678.53;;;11.53;66.02
69624;BME280;56843;52.020;5.670;2023-02-12T06:17:35;103682.00;;;11.54;66.16
69624;BME280;56843;52.020;5.670;2023-02-12T06:19:06;103672.13;;;11.54;65.84
69624;BME280;56843;52.020;5.670;2023-02-12T06:20:39;103679.91;;;11.56;65.89
69624;BME280;56843;52.020;5.670;2023-02-12T06:22:09;103675.84;;;11.53;66.02
69624;BME280;56843;52.020;5.670;2023-02-12T06:23:40;103672.13;;;11.54;65.97
69624;BME280;56843;52.020;5.670;2023-02-12T06:25:10;103674.78;;;11.54;65.78
69624;BME280;56843;52.020;5.670;2023-02-12T06:26:41;103674.78;;;11.54;66.04
69624;BME280;56843;52.020;5.670;2023-02-12T06:28:12;103678.53;;;11.53;65.39
69624;BME280;56843;52.020;5.670;2023-02-12T06:29:42;103672.38;;;11.53;65.56
69624;BME280;56843;52.020;5.670;2023-02-12T06:32:48;103684.69;;;11.54;65.54
69624;BME280;56843;52.020;5.670;2023-02-12T06:34:19;103676.66;;;11.54;65.51
69624;BME280;56843;52.020;5.670;2023-02-12T06:35:50;103676.94;;;11.52;65.54
69624;BME280;56843;52.020;5.670;2023-02-12T06:37:21;103672.63;;;11.51;65.28
69624;BME280;56843;52.020;5.670;2023-02-12T06:38:51;103673.44;;;11.52;65.41
69624;BME280;56843;52.020;5.670;2023-02-12T06:40:22;103681.47;;;11.52;65.15
69624;BME280;56843;52.020;5.670;2023-02-12T06:41:52;103679.59;;;11.52;65.15
69624;BME280;56843;52.020;5.670;2023-02-12T06:43:23;103683.88;;;11.53;65.05
69624;BME280;56843;52.020;5.670;2023-02-12T06:44:54;103678.53;;;11.53;65.01
69624;BME280;56843;52.020;5.670;2023-02-12T06:46:25;103675.63;;;11.55;65.45
69624;BME280;56843;52.020;5.670;2023-02-12T06:47:55;103672.13;;;11.54;65.45
69624;BME280;56843;52.020;5.670;2023-02-12T06:49:26;103683.41;;;11.56;65.34
69624;BME280;56843;52.020;5.670;2023-02-12T06:51:03;103686.63;;;11.58;65.42
69624;BME280;56843;52.020;5.670;2023-02-12T06:52:33;103686.88;;;11.57;65.22
69624;BME280;56843;52.020;5.670;2023-02-12T06:54:04;103685.03;;;11.57;65.54
69624;BME280;56843;52.020;5.670;2023-02-12T06:55:34;103681.53;;;11.57;65.40
69624;BME280;56843;52.020;5.670;2023-02-12T06:57:05;103684.50;;;11.60;65.43
69624;BME280;56843;52.020;5.670;2023-02-12T06:58:36;103681.00;;;11.60;65.81
69624;BME280;56843;52.020;5.670;2023-02-12T07:00:08;103679.94;;;11.61;65.76
69624;BME280;56843;52.020;5.670;2023-02-12T07:01:38;103689.59;;;11.62;65.23
69624;BME280;56843;52.020;5.670;2023-02-12T07:03:09;103685.03;;;11.62;65.91
69624;BME280;56843;52.020;5.670;2023-02-12T07:04:39;103699.22;;;11.63;65.65
69624;BME280;56843;52.020;5.670;2023-02-12T07:06:10;103703.53;;;11.64;65.53
69624;BME280;56843;52.020;5.670;2023-02-12T07:07:40;103698.41;;;11.62;66.01
69624;BME280;56843;52.020;5.670;2023-02-12T07:09:11;103692.00;;;11.63;65.39
69624;BME280;56843;52.020;5.670;2023-02-12T07:10:41;103695.50;;;11.64;65.50
69624;BME280;56843;52.020;5.670;2023-02-12T07:12:12;103698.41;;;11.62;65.75
69624;BME280;56843;52.020;5.670;2023-02-12T07:13:43;103695.75;;;11.62;65.41
69624;BME280;56843;52.020;5.670;2023-02-12T07:15:14;103694.97;;;11.62;65.56
69624;BME280;56843;52.020;5.670;2023-02-12T07:16:44;103703.78;;;11.62;65.56
69624;BME280;56843;52.020;5.670;2023-02-12T07:18:15;103697.63;;;11.62;65.36
69624;BME280;56843;52.020;5.670;2023-02-12T07:19:45;103695.75;;;11.62;65.51
69624;BME280;56843;52.020;5.670;2023-02-12T07:21:16;103695.75;;;11.62;65.30
69624;BME280;56843;52.020;5.670;2023-02-12T07:22:47;103707.25;;;11.63;65.27
69624;BME280;56843;52.020;5.670;2023-02-12T07:24:17;103706.44;;;11.62;65.28
69624;BME280;56843;52.020;5.670;2023-02-12T07:26:08;103704.59;;;11.63;64.91
69624;BME280;56843;52.020;5.670;2023-02-12T07:27:40;103707.75;;;11.60;65.68
69624;BME280;56843;52.020;5.670;2023-02-12T07:29:10;103712.06;;;11.61;65.18
69624;BME280;56843;52.020;5.670;2023-02-12T07:30:41;103717.41;;;11.61;65.11
69624;BME280;56843;52.020;5.670;2023-02-12T07:32:12;103708.56;;;11.60;64.92
69624;BME280;56843;52.020;5.670;2023-02-12T07:33:43;103712.34;;;11.59;65.08
69624;BME280;56843;52.020;5.670;2023-02-12T07:35:14;103719.28;;;11.60;64.99
69624;BME280;56843;52.020;5.670;2023-02-12T07:36:44;103714.19;;;11.59;64.84
69624;BME280;56843;52.020;5.670;2023-02-12T07:38:15;103712.06;;;11.61;65.04
69624;BME280;56843;52.020;5.670;2023-02-12T07:39:45;103717.41;;;11.61;64.89
69624;BME280;56843;52.020;5.670;2023-02-12T07:41:18;103715.00;;;11.59;65.03
69624;BME280;56843;52.020;5.670;2023-02-12T07:42:53;103720.91;;;11.61;65.00
69624;BME280;56843;52.020;5.670;2023-02-12T07:44:24;103716.59;;;11.60;65.01
69624;BME280;56843;52.020;5.670;2023-02-12T07:45:55;103727.31;;;11.60;64.50
69624;BME280;56843;52.020;5.670;2023-02-12T07:47:25;103717.41;;;11.61;64.92
69624;BME280;56843;52.020;5.670;2023-02-12T07:48:58;103720.09;;;11.61;64.82
69624;BME280;56843;52.020;5.670;2023-02-12T07:50:29;103720.38;;;11.59;64.62
69624;BME280;56843;52.020;5.670;2023-02-12T07:51:59;103728.13;;;11.61;64.83
69624;BME280;56843;52.020;5.670;2023-02-12T07:53:30;103718.75;;;11.58;64.80
69624;BME280;56843;52.020;5.670;2023-02-12T07:55:00;103728.41;;;11.59;64.46
69624;BME280;56843;52.020;5.670;2023-02-12T07:56:33;103728.41;;;11.59;64.71
69624;BME280;56843;52.020;5.670;2023-02-12T07:58:04;103731.06;;;11.59;64.76
69624;BME280;56843;52.020;5.670;2023-02-12T07:59:35;103724.63;;;11.60;64.86
69624;BME280;56843;52.020;5.670;2023-02-12T08:01:26;103723.59;;;11.61;64.55
69624;BME280;56843;52.020;5.670;2023-02-12T08:02:57;103722.72;;;11.56;64.58
69624;BME280;56843;52.020;5.670;2023-02-12T08:04:27;103727.03;;;11.57;64.44
69624;BME280;56843;52.020;5.670;2023-02-12T08:05:58;103729.44;;;11.58;64.46
69624;BME280;56843;52.020;5.670;2023-02-12T08:07:28;103734.81;;;11.58;64.41
69624;BME280;56843;52.020;5.670;2023-02-12T08:09:00;103734.81;;;11.58;64.33
69624;BME280;56843;52.020;5.670;2023-02-12T08:10:31;103728.63;;;11.58;64.63
69624;BME280;56843;52.020;5.670;2023-02-12T08:12:01;103731.06;;;11.59;64.37
69624;BME280;56843;52.020;5.670;2023-02-12T08:13:33;103736.16;;;11.61;64.35
69624;BME280;56843;52.020;5.670;2023-02-12T08:15:04;103739.88;;;11.60;64.39
69624;BME280;56843;52.020;5.670;2023-02-12T08:16:37;103741.50;;;11.61;64.39
69624;BME280;56843;52.020;5.670;2023-02-12T08:18:08;103740.69;;;11.60;64.35
69624;BME280;56843;52.020;5.670;2023-02-12T08:19:38;103740.16;;;11.58;64.34
69624;BME280;56843;52.020;5.670;2023-02-12T08:22:41;103740.97;;;11.59;64.31
69624;BME280;56843;52.020;5.670;2023-02-12T08:24:11;103751.41;;;11.60;64.59
69624;BME280;56843;52.020;5.670;2023-02-12T08:25:42;103755.16;;;11.59;64.29
69624;BME280;56843;52.020;5.670;2023-02-12T08:27:12;103756.75;;;11.60;64.65
69624;BME280;56843;52.020;5.670;2023-02-12T08:28:49;103755.72;;;11.61;64.61
69624;BME280;56843;52.020;5.670;2023-02-12T08:30:20;103759.44;;;11.60;64.69
69624;BME280;56843;52.020;5.670;2023-02-12T08:31:54;103762.94;;;11.61;64.38
69624;BME280;56843;52.020;5.670;2023-02-12T08:33:25;103757.03;;;11.59;64.31
69624;BME280;56843;52.020;5.670;2023-02-12T08:34:56;103761.88;;;11.62;64.36
69624;BME280;56843;52.020;5.670;2023-02-12T08:36:37;103755.72;;;11.61;64.84
69624;BME280;56843;52.020;5.670;2023-02-12T08:38:08;103764.78;;;11.60;64.57
69624;BME280;56843;52.020;5.670;2023-02-12T08:39:38;103765.59;;;11.61;64.76
69624;BME280;56843;52.020;5.670;2023-02-12T08:41:14;103762.66;;;11.62;64.82
69624;BME280;56843;52.020;5.670;2023-02-12T08:42:45;103768.28;;;11.61;64.82
69624;BME280;56843;52.020;5.670;2023-02-12T08:44:15;103770.69;;;11.62;64.58
69624;BME280;56843;52.020;5.670;2023-02-12T08:45:46;103775.00;;;11.63;64.67
69624;BME280;56843;52.020;5.670;2023-02-12T08:47:17;103778.72;;;11.62;64.98
69624;BME280;56843;52.020;5.670;2023-02-12T08:48:47;103778.72;;;11.62;64.75